Time;durP1;ratioP1;P1;durP2;ratioP2;P2;SDS_P1;SDS_P2;PMS_P1;PMS_P2;Temp;Humidity;BMP_temperature;BMP_pressure;BME280_temperature;BME280_humidity;BME280_pressure;Samples;Min_cycle;Max_cycle;Signal;HPM_P1;HPM_P2
2021/01/15 00:01:21;;;;;;;7.10;3.10;;;-0.10;99.90;;;;;;4857724;29;20053;-67
2021/01/15 00:03:48;;;;;;;6.20;3.10;;;-0.10;99.90;;;;;;4849018;29;20052;-67
2021/01/15 00:06:22;;;;;;;4.50;3.15;;;-0.10;99.90;;;;;;4831957;29;20054;-67
2021/01/15 00:08:49;;;;;;;6.57;3.20;;;-0.10;99.90;;;;;;4837092;29;20053;-67
2021/01/15 00:11:17;;;;;;;6.43;3.22;;;-0.10;99.90;;;;;;4844963;29;20125;-67
2021/01/15 00:13:44;;;;;;;4.95;2.88;;;-0.10;99.90;;;;;;4840815;29;20339;-66
2021/01/15 00:16:21;;;;;;;7.47;3.33;;;-0.20;99.90;;;;;;4840130;29;20053;-66
2021/01/15 00:18:50;;;;;;;5.60;3.00;;;-0.20;99.90;;;;;;4854918;29;20470;-66
2021/01/15 00:21:20;;;;;;;5.07;3.13;;;-0.20;99.90;;;;;;4842486;29;20065;-66
2021/01/15 00:23:47;;;;;;;5.78;2.97;;;-0.20;99.90;;;;;;4838331;29;20058;-67
2021/01/15 00:26:18;;;;;;;6.68;3.30;;;-0.20;99.90;;;;;;4854551;29;20055;-67
2021/01/15 00:28:45;;;;;;;5.85;3.15;;;-0.20;99.90;;;;;;4839679;29;20117;-67
2021/01/15 00:31:11;;;;;;;6.20;3.28;;;-0.20;99.90;;;;;;4841889;29;20061;-67
2021/01/15 00:33:39;;;;;;;4.88;2.72;;;-0.20;99.90;;;;;;4839339;29;20450;-67
2021/01/15 00:36:07;;;;;;;5.88;3.15;;;-0.10;99.90;;;;;;4834805;29;20053;-66
2021/01/15 00:38:35;;;;;;;4.93;2.75;;;-0.10;99.90;;;;;;4839498;29;20093;-67
2021/01/15 00:41:06;;;;;;;3.75;2.53;;;-0.20;99.90;;;;;;4857445;29;20126;-67
2021/01/15 00:43:33;;;;;;;6.80;2.72;;;-0.20;99.90;;;;;;4837453;29;20102;-66
2021/01/15 00:46:00;;;;;;;6.10;3.08;;;-0.20;99.90;;;;;;4857380;29;20160;-67
2021/01/15 00:48:27;;;;;;;9.20;2.58;;;-0.20;99.90;;;;;;4844240;29;20190;-67
2021/01/15 00:50:55;;;;;;;5.45;2.55;;;-0.20;99.90;;;;;;4839661;29;20408;-67
2021/01/15 00:53:21;;;;;;;5.43;2.88;;;-0.10;99.90;;;;;;4836630;29;20049;-67
2021/01/15 00:55:50;;;;;;;4.40;2.50;;;-0.10;99.90;;;;;;4844290;29;20058;-67
2021/01/15 00:58:16;;;;;;;;;;;-0.10;99.90;;;;;;4834808;29;20058;-67
2021/01/15 01:00:43;;;;;;;5.82;2.53;;;-0.10;99.90;;;;;;4829517;29;19968;-67
2021/01/15 01:03:09;;;;;;;5.55;2.65;;;0.00;99.90;;;;;;4838749;29;20050;-67
2021/01/15 01:05:36;;;;;;;4.40;2.42;;;0.00;99.90;;;;;;4844639;29;20053;-67
2021/01/15 01:08:02;;;;;;;6.47;3.03;;;0.00;99.90;;;;;;4841164;29;20050;-67
2021/01/15 01:10:30;;;;;;;5.25;2.45;;;0.00;99.90;;;;;;4844943;29;20137;-67
2021/01/15 01:12:56;;;;;;;5.15;2.28;;;0.00;99.90;;;;;;4834783;29;20057;-67
2021/01/15 01:15:22;;;;;;;4.60;2.35;;;0.00;99.90;;;;;;4843440;29;20486;-67
2021/01/15 01:17:51;;;;;;;4.13;2.20;;;0.00;99.90;;;;;;4837247;29;20050;-67
2021/01/15 01:20:18;;;;;;;4.38;2.28;;;0.00;99.90;;;;;;4840525;29;20063;-67
2021/01/15 01:22:49;;;;;;;4.38;2.42;;;0.00;99.90;;;;;;4830218;29;20050;-67
2021/01/15 01:25:17;;;;;;;4.15;2.20;;;0.00;99.90;;;;;;4844287;29;20400;-67
2021/01/15 01:27:47;;;;;;;4.20;2.20;;;0.00;99.90;;;;;;4831483;29;20137;-67
2021/01/15 01:30:14;;;;;;;4.30;2.20;;;0.00;99.90;;;;;;4830530;29;20173;-67
2021/01/15 01:32:41;;;;;;;6.38;2.70;;;0.10;99.90;;;;;;4841934;29;20085;-67
2021/01/15 01:35:08;;;;;;;4.00;2.50;;;0.10;99.90;;;;;;4832184;29;20065;-67
2021/01/15 01:37:35;;;;;;;3.75;2.10;;;0.10;99.90;;;;;;4844494;29;20057;-67
2021/01/15 01:40:02;;;;;;;4.35;2.20;;;0.20;99.90;;;;;;4852919;29;20125;-66
2021/01/15 01:42:29;;;;;;;5.55;2.60;;;0.20;99.90;;;;;;4849915;29;20062;-67
2021/01/15 01:44:55;;;;;;;4.40;2.47;;;0.30;99.90;;;;;;4835396;29;20077;-67
2021/01/15 01:47:22;;;;;;;3.92;2.10;;;0.30;99.90;;;;;;4834899;29;20173;-67
2021/01/15 01:49:49;;;;;;;4.03;2.30;;;0.40;99.90;;;;;;4840181;29;20061;-67
2021/01/15 01:52:17;;;;;;;4.32;2.60;;;0.40;99.90;;;;;;4834408;29;20581;-67
2021/01/15 01:54:46;;;;;;;5.30;2.03;;;0.40;99.90;;;;;;4834579;29;20076;-67
2021/01/15 01:57:13;;;;;;;5.55;2.53;;;0.50;99.90;;;;;;4838117;29;20095;-67
2021/01/15 01:59:39;;;;;;;3.70;2.20;;;0.50;99.90;;;;;;4849787;29;20140;-67
2021/01/15 02:02:06;;;;;;;4.00;2.22;;;0.50;99.90;;;;;;4838118;29;20065;-67
2021/01/15 02:04:34;;;;;;;4.25;2.22;;;0.60;99.90;;;;;;4838848;29;20072;-67
2021/01/15 02:07:00;;;;;;;4.20;2.45;;;0.60;99.90;;;;;;4837011;29;20045;-67
2021/01/15 02:09:49;;;;;;;4.03;2.22;;;0.60;99.90;;;;;;4843034;29;20049;-67
2021/01/15 02:12:27;;;;;;;3.78;2.10;;;0.70;99.90;;;;;;4840063;29;20121;-67
2021/01/15 02:15:00;;;;;;;4.18;2.00;;;0.70;99.90;;;;;;4841890;29;20109;-67
2021/01/15 02:17:34;;;;;;;4.25;2.53;;;0.70;99.90;;;;;;4843623;29;20061;-67
2021/01/15 02:20:13;;;;;;;5.22;2.70;;;0.70;99.90;;;;;;4837752;29;20050;-67
2021/01/15 02:22:56;;;;;;;;;;;0.80;99.90;;;;;;4854696;29;20110;-66
2021/01/15 02:25:29;;;;;;;3.05;2.03;;;0.70;99.90;;;;;;4829804;29;19932;-67
2021/01/15 02:28:25;;;;;;;4.00;2.20;;;0.80;99.90;;;;;;4835709;29;20057;-66
2021/01/15 02:31:16;;;;;;;3.50;1.90;;;0.80;99.90;;;;;;4853319;29;20054;-67
2021/01/15 02:34:09;;;;;;;3.95;2.30;;;0.80;99.90;;;;;;4847563;29;20218;-67
2021/01/15 02:36:51;;;;;;;3.95;2.25;;;0.90;99.90;;;;;;4837897;29;20057;-67
2021/01/15 02:39:49;;;;;;;5.18;2.55;;;0.90;99.90;;;;;;4843222;29;20137;-67
2021/01/15 02:42:17;;;;;;;3.42;2.22;;;0.90;99.90;;;;;;4838884;29;20434;-67
2021/01/15 02:44:53;;;;;;;4.35;2.60;;;0.90;99.90;;;;;;4851521;29;20061;-67
2021/01/15 02:47:27;;;;;;;4.35;2.22;;;0.90;99.90;;;;;;4842884;29;20050;-67
2021/01/15 02:49:55;;;;;;;4.53;2.45;;;0.90;99.90;;;;;;4842776;29;20049;-67
2021/01/15 02:52:22;;;;;;;5.53;2.38;;;0.90;99.90;;;;;;4842401;29;20065;-67
2021/01/15 02:54:48;;;;;;;4.80;2.72;;;0.90;99.90;;;;;;4841906;29;20109;-67
2021/01/15 02:57:15;;;;;;;4.97;2.38;;;0.90;99.90;;;;;;4835652;29;20110;-67
2021/01/15 02:59:42;;;;;;;4.40;2.72;;;1.00;99.90;;;;;;4841742;29;20106;-67
2021/01/15 03:02:18;;;;;;;4.35;2.53;;;1.00;99.90;;;;;;4839685;29;20118;-67
2021/01/15 03:05:00;;;;;;;4.15;2.30;;;1.00;99.90;;;;;;4845650;29;20061;-67
2021/01/15 03:07:30;;;;;;;5.45;2.50;;;1.00;99.90;;;;;;4833877;29;20053;-67
2021/01/15 03:10:01;;;;;;;4.35;2.15;;;1.00;99.90;;;;;;4840912;29;20087;-67
2021/01/15 03:12:28;;;;;;;3.05;2.10;;;1.00;99.90;;;;;;4838215;29;20077;-67
2021/01/15 03:14:55;;;;;;;4.55;2.53;;;1.00;99.90;;;;;;4856683;29;20569;-67
2021/01/15 03:17:28;;;;;;;3.78;2.30;;;1.00;99.90;;;;;;4837984;29;20057;-67
2021/01/15 03:19:55;;;;;;;4.18;2.28;;;1.00;99.90;;;;;;4839437;29;20057;-67
2021/01/15 03:22:23;;;;;;;5.40;2.67;;;1.00;99.90;;;;;;4830530;29;20079;-67
2021/01/15 03:24:59;;;;;;;4.47;2.40;;;1.00;99.90;;;;;;4856763;29;20139;-67
2021/01/15 03:27:49;;;;;;;4.38;2.22;;;1.00;99.90;;;;;;4833059;29;20058;-67
2021/01/15 03:30:29;;;;;;;4.70;2.10;;;1.00;99.90;;;;;;4837951;29;20053;-67
2021/01/15 03:32:57;;;;;;;3.97;1.90;;;1.00;99.90;;;;;;4841255;29;20054;-67
2021/01/15 03:35:25;;;;;;;5.63;2.50;;;1.00;99.90;;;;;;4840156;29;20466;-67
2021/01/15 03:37:55;;;;;;;5.75;2.45;;;1.10;99.90;;;;;;4840174;29;20060;-67
2021/01/15 03:40:23;;;;;;;4.43;2.47;;;1.10;99.90;;;;;;4840920;29;20458;-67
2021/01/15 03:42:49;;;;;;;4.03;2.08;;;1.10;99.90;;;;;;4826967;29;20057;-67
2021/01/15 03:45:19;;;;;;;5.43;2.90;;;1.10;99.90;;;;;;4843940;29;20125;-67
2021/01/15 03:47:46;;;;;;;4.30;2.40;;;1.10;99.90;;;;;;4861214;29;20141;-67
2021/01/15 03:50:13;;;;;;;4.65;2.42;;;1.10;99.90;;;;;;4861709;29;20110;-67
2021/01/15 03:52:40;;;;;;;4.30;2.40;;;1.10;99.90;;;;;;4860618;29;20077;-67
2021/01/15 03:55:07;;;;;;;3.85;2.30;;;1.10;99.90;;;;;;4840263;29;20068;-67
2021/01/15 03:57:34;;;;;;;4.85;2.55;;;1.10;99.90;;;;;;4846463;29;20050;-67
2021/01/15 04:00:04;;;;;;;4.40;2.33;;;1.20;99.90;;;;;;4844788;29;20076;-67
2021/01/15 04:02:31;;;;;;;3.83;2.10;;;1.20;99.90;;;;;;4841622;29;20427;-67
2021/01/15 04:04:58;;;;;;;4.72;2.53;;;1.20;99.90;;;;;;4835650;29;20057;-67
2021/01/15 04:07:25;;;;;;;4.25;2.03;;;1.20;99.90;;;;;;4844917;29;20377;-67
2021/01/15 04:09:52;;;;;;;5.07;2.78;;;1.20;99.90;;;;;;4843172;29;20748;-67
2021/01/15 04:12:18;;;;;;;4.63;2.10;;;1.20;99.90;;;;;;4834993;29;20114;-67
2021/01/15 04:14:44;;;;;;;3.75;2.03;;;1.20;99.90;;;;;;4833642;29;20478;-67
2021/01/15 04:17:11;;;;;;;3.58;2.05;;;1.20;99.90;;;;;;4834932;29;20459;-67
2021/01/15 04:19:39;;;;;;;4.15;2.03;;;1.20;99.90;;;;;;4834834;29;20052;-67
2021/01/15 04:22:05;;;;;;;3.90;2.20;;;1.20;99.90;;;;;;4835633;29;20065;-67
2021/01/15 04:24:31;;;;;;;4.82;2.10;;;1.30;99.90;;;;;;4848711;29;20053;-67
2021/01/15 04:26:58;;;;;;;4.38;2.38;;;1.30;99.90;;;;;;4833768;29;20118;-67
2021/01/15 04:29:26;;;;;;;3.85;2.20;;;1.30;99.90;;;;;;4848816;29;20494;-67
2021/01/15 04:31:52;;;;;;;4.85;2.22;;;1.30;99.90;;;;;;4835038;29;20066;-67
2021/01/15 04:34:19;;;;;;;4.15;2.47;;;1.30;99.90;;;;;;4833913;29;20081;-67
2021/01/15 04:36:52;;;;;;;3.60;1.88;;;1.30;99.90;;;;;;4835814;29;20053;-67
2021/01/15 04:39:19;;;;;;;4.05;2.30;;;1.30;99.90;;;;;;4837118;29;20065;-67
2021/01/15 04:41:47;;;;;;;2.83;1.70;;;1.30;99.90;;;;;;4836969;29;20105;-66
2021/01/15 04:44:15;;;;;;;3.67;2.53;;;1.30;99.90;;;;;;4833309;29;20498;-66
2021/01/15 04:46:41;;;;;;;3.35;2.10;;;1.30;99.90;;;;;;4832302;29;20106;-66
2021/01/15 04:49:10;;;;;;;3.95;2.35;;;1.30;99.90;;;;;;4846679;29;20046;-66
2021/01/15 04:51:39;;;;;;;4.95;2.65;;;1.30;99.90;;;;;;4833169;29;20191;-66
2021/01/15 04:54:11;;;;;;;4.33;2.07;;;1.30;99.90;;;;;;4847985;29;20093;-67
2021/01/15 04:56:55;;;;;;;4.25;2.30;;;1.30;99.90;;;;;;4831006;29;20065;-67
2021/01/15 04:59:22;;;;;;;4.50;2.13;;;1.30;99.90;;;;;;4845393;29;20406;-67
2021/01/15 05:02:00;;;;;;;5.82;2.55;;;1.30;99.90;;;;;;4850326;29;20511;-66
2021/01/15 05:04:29;;;;;;;4.28;2.47;;;1.30;99.90;;;;;;4847511;29;20440;-67
2021/01/15 05:06:57;;;;;;;3.30;2.10;;;1.30;99.90;;;;;;4831710;29;20049;-67
2021/01/15 05:09:25;;;;;;;2.58;1.70;;;1.30;99.90;;;;;;4832744;29;20141;-67
2021/01/15 05:11:52;;;;;;;4.07;2.20;;;1.30;99.90;;;;;;4835832;29;20053;-67
2021/01/15 05:14:20;;;;;;;4.88;2.47;;;1.40;99.90;;;;;;4830862;29;20457;-67
2021/01/15 05:16:49;;;;;;;4.65;2.33;;;1.40;99.90;;;;;;4831431;29;20049;-67
2021/01/15 05:19:17;;;;;;;4.80;2.10;;;1.40;99.90;;;;;;4835619;29;20490;-67
2021/01/15 05:21:50;;;;;;;4.90;2.53;;;1.40;99.90;;;;;;4852248;29;20061;-67
2021/01/15 05:24:17;;;;;;;4.20;2.00;;;1.40;99.90;;;;;;4842535;29;20091;-67
2021/01/15 05:26:43;;;;;;;4.35;2.35;;;1.40;99.90;;;;;;4832535;29;20054;-67
2021/01/15 05:29:10;;;;;;;4.18;1.98;;;1.40;99.90;;;;;;4845691;29;20431;-67
2021/01/15 05:32:01;;;;;;;4.80;2.72;;;1.40;99.90;;;;;;4845588;29;20054;-66
2021/01/15 05:34:28;;;;;;;4.63;2.50;;;1.40;99.90;;;;;;4834341;29;20566;-67
2021/01/15 05:36:55;;;;;;;5.82;2.38;;;1.40;99.90;;;;;;4845806;29;20183;-67
2021/01/15 05:39:22;;;;;;;3.75;1.90;;;1.40;99.90;;;;;;4827935;29;20482;-67
2021/01/15 05:41:56;;;;;;;5.80;2.58;;;1.40;99.90;;;;;;4841906;29;20117;-67
2021/01/15 05:44:34;;;;;;;4.50;2.47;;;1.40;99.90;;;;;;4837530;29;20053;-67
2021/01/15 05:47:01;;;;;;;3.50;2.00;;;1.40;99.90;;;;;;4835812;29;20505;-67
2021/01/15 05:49:28;;;;;;;5.30;2.70;;;1.40;99.90;;;;;;4855857;29;20133;-67
2021/01/15 05:52:07;;;;;;;5.43;2.65;;;1.40;99.90;;;;;;4840135;29;20066;-67
2021/01/15 05:54:35;;;;;;;4.55;2.67;;;1.40;99.90;;;;;;4836272;29;20054;-67
2021/01/15 05:57:03;;;;;;;5.07;2.67;;;1.40;99.90;;;;;;4838418;29;20403;-67
2021/01/15 05:59:36;;;;;;;3.85;2.22;;;1.40;99.90;;;;;;4838974;29;20062;-67
2021/01/15 06:02:06;;;;;;;4.38;2.25;;;1.40;99.90;;;;;;4841239;29;20446;-67
2021/01/15 06:04:34;;;;;;;5.30;2.58;;;1.40;99.90;;;;;;4851030;29;20279;-67
2021/01/15 06:07:10;;;;;;;4.63;2.25;;;1.40;99.90;;;;;;4841831;29;20049;-67
2021/01/15 06:09:38;;;;;;;5.63;2.67;;;1.40;99.90;;;;;;4836058;29;20046;-67
2021/01/15 06:12:12;;;;;;;5.65;2.60;;;1.50;99.90;;;;;;4842922;29;20057;-67
2021/01/15 06:14:57;;;;;;;3.38;2.17;;;1.50;99.90;;;;;;4842208;29;20057;-67
2021/01/15 06:17:25;;;;;;;4.53;2.28;;;1.40;99.90;;;;;;4844502;29;20061;-67
2021/01/15 06:19:54;;;;;;;4.38;2.40;;;1.50;99.90;;;;;;4837366;29;20064;-67
2021/01/15 06:22:49;;;;;;;5.70;2.28;;;1.40;99.90;;;;;;4850338;29;20063;-67
2021/01/15 06:25:30;;;;;;;5.28;2.17;;;1.50;99.90;;;;;;4839918;29;20054;-67
2021/01/15 06:27:58;;;;;;;4.95;2.70;;;1.50;99.90;;;;;;4851134;29;20065;-67
2021/01/15 06:30:29;;;;;;;3.63;2.00;;;1.50;99.90;;;;;;4845590;29;20057;-67
2021/01/15 06:33:10;;;;;;;4.80;2.22;;;1.50;99.90;;;;;;4851500;29;20306;-67
2021/01/15 06:35:38;;;;;;;6.30;3.05;;;1.50;99.90;;;;;;4840720;29;20057;-67
2021/01/15 06:38:09;;;;;;;4.90;2.35;;;1.50;99.90;;;;;;4852732;29;20554;-67
2021/01/15 06:40:40;;;;;;;4.10;2.30;;;1.50;99.90;;;;;;4853687;29;20125;-67
2021/01/15 06:43:27;;;;;;;4.43;2.20;;;1.50;99.90;;;;;;4841249;29;20065;-67
2021/01/15 06:45:56;;;;;;;5.15;2.40;;;1.50;99.90;;;;;;4838493;29;20062;-67
2021/01/15 06:48:41;;;;;;;4.80;2.50;;;1.50;99.90;;;;;;4839575;29;20054;-67
2021/01/15 06:51:08;;;;;;;4.97;2.47;;;1.50;99.90;;;;;;4836931;29;20450;-67
2021/01/15 06:53:41;;;;;;;4.80;1.98;;;1.50;99.90;;;;;;4839821;29;20367;-66
2021/01/15 06:56:12;;;;;;;4.10;2.28;;;1.50;99.90;;;;;;4838457;29;20516;-66
2021/01/15 06:58:40;;;;;;;4.32;2.15;;;1.50;99.90;;;;;;4841380;29;20305;-67
2021/01/15 07:01:20;;;;;;;4.28;2.25;;;1.50;99.90;;;;;;4849409;29;20061;-67
2021/01/15 07:04:19;;;;;;;5.18;2.47;;;1.50;99.90;;;;;;4838529;29;20057;-67
2021/01/15 07:07:17;;;;;;;4.70;2.00;;;1.50;99.90;;;;;;4856229;29;20050;-67
2021/01/15 07:09:48;;;;;;;4.03;2.17;;;1.50;99.90;;;;;;4838104;29;20138;-66
2021/01/15 07:12:20;;;;;;;3.22;2.03;;;1.50;99.90;;;;;;4825465;29;20431;-67
2021/01/15 07:14:54;;;;;;;4.63;2.10;;;1.50;99.90;;;;;;4841518;29;20054;-67
2021/01/15 07:17:37;;;;;;;3.85;1.83;;;1.50;99.90;;;;;;4826939;29;20057;-67
2021/01/15 07:20:13;;;;;;;4.85;2.40;;;1.50;99.90;;;;;;4825860;29;20081;-67
2021/01/15 07:23:00;;;;;;;4.38;2.40;;;1.50;99.90;;;;;;4825414;29;20529;-67
2021/01/15 07:25:27;;;;;;;5.90;2.50;;;1.50;99.90;;;;;;4824731;29;20050;-67
2021/01/15 07:27:55;;;;;;;5.63;2.47;;;1.50;99.90;;;;;;4825933;29;20142;-67
2021/01/15 07:30:28;;;;;;;5.18;2.78;;;1.50;99.90;;;;;;4842523;29;20061;-67
2021/01/15 07:32:56;;;;;;;5.95;2.60;;;1.50;99.90;;;;;;4824790;29;20057;-67
2021/01/15 07:35:26;;;;;;;5.03;2.35;;;1.50;99.90;;;;;;4819572;29;20624;-67
2021/01/15 07:38:12;;;;;;;4.13;2.22;;;1.50;99.90;;;;;;4825182;29;20451;-67
2021/01/15 07:40:39;;;;;;;3.70;2.30;;;1.50;99.90;;;;;;4828599;29;20065;-67
2021/01/15 07:43:09;;;;;;;5.70;2.65;;;1.50;99.90;;;;;;4825551;29;20057;-67
2021/01/15 07:45:43;;;;;;;4.53;2.38;;;1.50;99.90;;;;;;4838829;29;20062;-66
2021/01/15 07:48:10;;;;;;;6.20;2.65;;;1.50;99.90;;;;;;4827277;29;20059;-67
2021/01/15 07:50:42;;;;;;;4.68;2.50;;;1.50;99.90;;;;;;4821703;29;20062;-67
2021/01/15 07:53:28;;;;;;;4.85;2.63;;;1.50;99.90;;;;;;4827411;29;20080;-66
2021/01/15 07:55:57;;;;;;;5.22;2.72;;;1.50;99.90;;;;;;4827331;29;20434;-67
2021/01/15 07:58:25;;;;;;;;;;;1.50;99.90;;;;;;4825149;29;20093;-66
2021/01/15 08:00:52;;;;;;;3.55;2.15;;;1.50;99.90;;;;;;4826077;29;20005;-67
2021/01/15 08:03:19;;;;;;;5.95;2.60;;;1.50;99.90;;;;;;4841713;29;20057;-66
2021/01/15 08:05:46;;;;;;;4.55;2.22;;;1.60;99.90;;;;;;4827195;29;20053;-66
2021/01/15 08:08:17;;;;;;;4.95;2.67;;;1.60;99.90;;;;;;4826361;29;20109;-67
2021/01/15 08:10:49;;;;;;;5.53;2.78;;;1.60;99.90;;;;;;4821098;29;20065;-66
2021/01/15 08:13:26;;;;;;;6.07;2.58;;;1.60;99.90;;;;;;4827230;29;20057;-66
2021/01/15 08:15:55;;;;;;;5.32;2.75;;;1.60;99.90;;;;;;4826261;29;20053;-66
2021/01/15 08:18:23;;;;;;;5.28;2.70;;;1.60;99.90;;;;;;4844370;29;20061;-66
2021/01/15 08:20:54;;;;;;;4.10;2.45;;;1.60;99.90;;;;;;4826257;29;20062;-66
2021/01/15 08:23:27;;;;;;;4.00;2.28;;;1.60;99.90;;;;;;4844713;29;20057;-66
2021/01/15 08:26:19;;;;;;;5.28;2.55;;;1.60;99.90;;;;;;4844128;29;20085;-67
2021/01/15 08:28:49;;;;;;;4.95;2.30;;;1.60;99.90;;;;;;4840951;29;20545;-66
2021/01/15 08:31:22;;;;;;;5.07;2.80;;;1.60;99.90;;;;;;4845920;29;20050;-66
2021/01/15 08:34:11;;;;;;;5.07;3.00;;;1.60;99.90;;;;;;4831948;29;20049;-66
2021/01/15 08:36:40;;;;;;;;;;;1.60;99.90;;;;;;4830333;29;20054;-66
2021/01/15 08:39:16;;;;;;;3.80;2.40;;;1.60;99.90;;;;;;4828512;29;19924;-66
2021/01/15 08:41:43;;;;;;;5.30;2.60;;;1.60;99.90;;;;;;4825904;29;20483;-66
2021/01/15 08:44:14;;;;;;;5.03;2.65;;;1.60;99.90;;;;;;4829937;29;20580;-66
2021/01/15 08:46:43;;;;;;;5.20;2.78;;;1.60;99.90;;;;;;4827654;29;20064;-66
2021/01/15 08:49:10;;;;;;;5.28;2.55;;;1.60;99.90;;;;;;4824504;29;20065;-66
2021/01/15 08:52:10;;;;;;;3.50;2.80;;;1.60;99.90;;;;;;4829900;29;20157;-66
2021/01/15 08:54:39;;;;;;;4.97;2.33;;;1.60;99.90;;;;;;4833325;29;20061;-66
2021/01/15 08:57:13;;;;;;;5.00;2.75;;;1.60;99.90;;;;;;4827247;29;20065;-66
2021/01/15 08:59:40;;;;;;;6.38;3.33;;;1.60;99.90;;;;;;4833202;29;20069;-65
2021/01/15 09:02:10;;;;;;;4.97;3.00;;;1.60;99.90;;;;;;4835212;29;20471;-66
2021/01/15 09:04:41;;;;;;;4.75;3.15;;;1.60;99.90;;;;;;4829654;29;20045;-65
2021/01/15 09:07:07;;;;;;;5.97;3.78;;;1.70;99.90;;;;;;4830834;29;20087;-66
2021/01/15 09:09:42;;;;;;;6.35;3.42;;;1.70;99.90;;;;;;4826925;29;20093;-66
2021/01/15 09:12:10;;;;;;;4.75;3.10;;;1.70;99.90;;;;;;4830534;29;22764;-66
2021/01/15 09:14:37;;;;;;;5.53;3.50;;;1.70;99.90;;;;;;4839276;29;20133;-65
2021/01/15 09:17:08;;;;;;;6.50;3.50;;;1.80;99.90;;;;;;4827106;29;20434;-66
2021/01/15 09:19:36;;;;;;;5.82;3.45;;;1.90;99.90;;;;;;4828986;29;20050;-66
2021/01/15 09:22:07;;;;;;;6.60;3.58;;;1.90;99.90;;;;;;4828547;29;20138;-66
2021/01/15 09:24:36;;;;;;;6.57;3.67;;;1.90;99.90;;;;;;4842601;29;20054;-66
2021/01/15 09:27:07;;;;;;;6.50;3.33;;;1.90;99.90;;;;;;4846674;29;20058;-66
2021/01/15 09:29:34;;;;;;;6.32;3.38;;;1.90;99.90;;;;;;4842313;29;20111;-66
2021/01/15 09:32:03;;;;;;;5.95;3.50;;;2.00;99.90;;;;;;4828347;29;20050;-66
2021/01/15 09:34:31;;;;;;;6.50;3.53;;;2.00;99.90;;;;;;4823431;29;20064;-66
2021/01/15 09:36:58;;;;;;;5.55;3.33;;;2.00;99.90;;;;;;4826160;29;20084;-66
2021/01/15 09:39:26;;;;;;;6.03;3.40;;;2.00;99.90;;;;;;4830854;29;20561;-67
2021/01/15 09:41:55;;;;;;;5.35;3.05;;;2.00;99.90;;;;;;4842823;29;20072;-66
2021/01/15 09:44:24;;;;;;;7.13;3.60;;;2.00;99.90;;;;;;4837245;29;20054;-67
2021/01/15 09:46:56;;;;;;;5.72;3.20;;;2.10;99.90;;;;;;4838921;29;20053;-67
2021/01/15 09:49:24;;;;;;;6.75;3.55;;;2.10;99.90;;;;;;4838689;29;20509;-67
2021/01/15 09:51:51;;;;;;;6.15;3.50;;;2.10;99.90;;;;;;4850393;29;20057;-66
2021/01/15 09:54:18;;;;;;;5.78;3.17;;;2.10;99.90;;;;;;4829234;29;20082;-67
2021/01/15 09:56:45;;;;;;;5.40;2.97;;;2.10;99.90;;;;;;4843421;29;20077;-67
2021/01/15 09:59:14;;;;;;;7.47;3.53;;;2.10;99.90;;;;;;4837413;29;20126;-67
2021/01/15 10:01:40;;;;;;;5.60;2.85;;;2.10;99.90;;;;;;4835813;29;20049;-67
2021/01/15 10:04:07;;;;;;;4.80;2.58;;;2.10;99.90;;;;;;4841496;29;20054;-67
2021/01/15 10:06:38;;;;;;;6.40;3.53;;;2.10;99.90;;;;;;4830202;29;20146;-66
2021/01/15 10:09:06;;;;;;;6.65;2.95;;;2.20;99.90;;;;;;4838806;29;20046;-66
2021/01/15 10:11:38;;;;;;;6.03;3.40;;;2.20;99.90;;;;;;4839180;29;20046;-66
2021/01/15 10:14:10;;;;;;;6.03;3.22;;;2.20;99.90;;;;;;4839857;29;20525;-66
2021/01/15 10:16:42;;;;;;;5.95;3.45;;;2.20;99.90;;;;;;4837770;29;20124;-66
2021/01/15 10:19:08;;;;;;;6.22;3.33;;;2.20;99.90;;;;;;4828593;29;20045;-65
2021/01/15 10:21:35;;;;;;;6.30;3.63;;;2.20;99.90;;;;;;4842797;29;20471;-66
2021/01/15 10:24:02;;;;;;;6.35;3.47;;;2.20;99.90;;;;;;4826119;29;21019;-66
2021/01/15 10:26:31;;;;;;;5.47;3.17;;;2.20;99.90;;;;;;4826294;29;20506;-66
2021/01/15 10:29:03;;;;;;;5.72;2.80;;;2.20;99.90;;;;;;4826446;29;20149;-66
2021/01/15 10:31:32;;;;;;;7.22;3.35;;;2.30;99.90;;;;;;4841762;29;20401;-66
2021/01/15 10:34:01;;;;;;;7.32;3.33;;;2.20;99.90;;;;;;4826868;29;20513;-66
2021/01/15 10:36:28;;;;;;;7.20;3.40;;;2.30;99.90;;;;;;4824756;29;20045;-66
2021/01/15 10:38:55;;;;;;;5.07;2.75;;;2.30;99.90;;;;;;4825926;29;20065;-66
2021/01/15 10:41:33;;;;;;;7.55;3.63;;;2.30;99.90;;;;;;4827236;29;20064;-66
2021/01/15 10:44:02;;;;;;;6.50;3.33;;;2.30;99.90;;;;;;4843127;29;20680;-66
2021/01/15 10:46:42;;;;;;;4.75;2.15;;;2.30;99.90;;;;;;4824171;29;20081;-66
2021/01/15 10:49:19;;;;;;;4.85;2.90;;;2.30;99.90;;;;;;4828392;29;20058;-66
2021/01/15 10:51:50;;;;;;;6.57;3.20;;;2.30;99.90;;;;;;4826241;29;20125;-65
2021/01/15 10:54:17;;;;;;;7.22;2.95;;;2.30;99.90;;;;;;4826666;29;20089;-66
2021/01/15 10:56:46;;;;;;;6.03;2.65;;;2.40;99.90;;;;;;4843613;29;20076;-66
2021/01/15 10:59:13;;;;;;;5.40;2.80;;;2.40;99.90;;;;;;4826435;29;20058;-66
2021/01/15 11:01:40;;;;;;;5.78;3.30;;;2.50;99.90;;;;;;4827963;29;20054;-67
2021/01/15 11:04:08;;;;;;;5.28;2.97;;;2.50;99.90;;;;;;4824362;29;20482;-68
2021/01/15 11:06:39;;;;;;;5.53;3.00;;;2.50;99.90;;;;;;4830274;29;20521;-69
2021/01/15 11:09:10;;;;;;;6.70;3.28;;;2.50;99.90;;;;;;4840300;29;20054;-68
2021/01/15 11:11:56;;;;;;;7.38;3.45;;;2.50;99.90;;;;;;4842188;29;20133;-69
2021/01/15 11:14:24;;;;;;;6.35;2.97;;;2.60;99.90;;;;;;4829534;29;20061;-69
2021/01/15 11:16:51;;;;;;;6.88;3.22;;;2.60;99.90;;;;;;4829530;29;20054;-67
2021/01/15 11:19:18;;;;;;;6.63;2.85;;;2.60;99.90;;;;;;4827493;29;20053;-66
2021/01/15 11:21:44;;;;;;;5.82;3.35;;;2.70;99.90;;;;;;4826003;29;20449;-68
2021/01/15 11:24:11;;;;;;;7.50;3.65;;;2.70;99.90;;;;;;4825594;29;20118;-67
2021/01/15 11:26:37;;;;;;;7.82;3.42;;;2.70;99.90;;;;;;4824059;29;20137;-68
2021/01/15 11:29:07;;;;;;;7.20;3.55;;;2.70;99.90;;;;;;4816856;29;20058;-68
2021/01/15 11:31:34;;;;;;;6.30;3.42;;;2.70;99.90;;;;;;4824938;29;20102;-68
2021/01/15 11:34:03;;;;;;;6.80;3.85;;;2.70;99.90;;;;;;4823539;29;20177;-67
2021/01/15 11:36:32;;;;;;;5.80;3.30;;;2.70;99.90;;;;;;4825371;29;20054;-67
2021/01/15 11:39:02;;;;;;;7.63;3.28;;;2.70;99.90;;;;;;4822180;29;20115;-68
2021/01/15 11:41:28;;;;;;;6.00;3.13;;;2.80;99.90;;;;;;4817066;29;20076;-68
2021/01/15 11:43:55;;;;;;;6.72;3.72;;;2.80;99.90;;;;;;4824183;29;20525;-68
2021/01/15 11:46:29;;;;;;;8.40;3.60;;;2.80;99.90;;;;;;4840526;29;20122;-68
2021/01/15 11:48:58;;;;;;;7.20;3.55;;;2.80;99.90;;;;;;4823854;29;20096;-68
2021/01/15 11:51:25;;;;;;;7.35;3.50;;;2.80;99.90;;;;;;4824862;29;20061;-68
2021/01/15 11:53:51;;;;;;;7.55;4.00;;;2.90;99.90;;;;;;4839555;29;20057;-68
2021/01/15 11:56:19;;;;;;;6.43;3.70;;;2.90;99.90;;;;;;4841182;29;20057;-68
2021/01/15 11:58:45;;;;;;;8.75;3.47;;;2.90;99.90;;;;;;4825673;29;20158;-68
2021/01/15 12:01:11;;;;;;;8.75;4.10;;;2.90;99.90;;;;;;4839049;29;20077;-68
2021/01/15 12:03:38;;;;;;;8.40;3.65;;;2.90;99.90;;;;;;4852699;29;20490;-68
2021/01/15 12:06:05;;;;;;;6.07;3.17;;;2.90;99.90;;;;;;4830286;29;20050;-68
2021/01/15 12:08:32;;;;;;;7.97;3.70;;;3.00;99.90;;;;;;4847236;29;20057;-67
2021/01/15 12:11:02;;;;;;;8.13;4.03;;;3.00;99.90;;;;;;4830587;29;20054;-68
2021/01/15 12:13:31;;;;;;;6.22;3.53;;;3.00;99.90;;;;;;4844566;29;20406;-68
2021/01/15 12:15:57;;;;;;;8.43;3.58;;;3.00;99.90;;;;;;4828979;29;20490;-68
2021/01/15 12:18:24;;;;;;;7.63;3.75;;;3.00;99.90;;;;;;4831119;29;20058;-68
2021/01/15 12:20:56;;;;;;;6.43;3.58;;;3.00;99.90;;;;;;4846673;29;20410;-68
2021/01/15 12:23:23;;;;;;;7.75;3.70;;;3.00;99.90;;;;;;4843101;29;20562;-68
2021/01/15 12:25:50;;;;;;;7.97;3.97;;;3.00;99.90;;;;;;4828606;29;20057;-69
2021/01/15 12:28:19;;;;;;;7.50;3.80;;;3.00;99.90;;;;;;4844980;29;20065;-68
2021/01/15 12:30:46;;;;;;;8.10;3.65;;;3.00;99.90;;;;;;4842142;29;20392;-68
2021/01/15 12:33:17;;;;;;;8.32;4.00;;;3.10;99.90;;;;;;4828658;29;20421;-69
2021/01/15 12:35:46;;;;;;;7.22;3.63;;;3.10;99.90;;;;;;4853939;29;20433;-68
2021/01/15 12:38:14;;;;;;;6.30;3.13;;;3.10;99.90;;;;;;4828007;29;20127;-69
2021/01/15 12:40:41;;;;;;;7.47;3.55;;;3.10;99.90;;;;;;4845201;29;20713;-68
2021/01/15 12:43:09;;;;;;;7.32;3.72;;;3.10;99.90;;;;;;4830435;29;21722;-68
2021/01/15 12:45:37;;;;;;;7.18;3.53;;;3.20;99.90;;;;;;4830079;29;20049;-68
2021/01/15 12:48:05;;;;;;;8.13;4.03;;;3.20;99.90;;;;;;4845822;29;20068;-68
2021/01/15 12:50:32;;;;;;;9.00;4.28;;;3.20;99.90;;;;;;4828236;29;20053;-68
2021/01/15 12:52:58;;;;;;;10.02;4.35;;;3.20;99.90;;;;;;4827209;29;20065;-68
2021/01/15 12:55:26;;;;;;;8.98;4.38;;;3.10;99.90;;;;;;4831046;29;20466;-69
2021/01/15 12:57:54;;;;;;;6.93;3.38;;;3.10;99.90;;;;;;4829465;29;20061;-68
2021/01/15 13:00:21;;;;;;;7.85;3.63;;;3.10;99.90;;;;;;4827383;29;20054;-67
2021/01/15 13:02:48;;;;;;;7.72;3.90;;;3.10;99.90;;;;;;4826352;29;20116;-68
2021/01/15 13:05:15;;;;;;;12.88;4.10;;;3.10;99.90;;;;;;4841733;29;20054;-67
2021/01/15 13:07:42;;;;;;;5.43;3.50;;;3.00;99.90;;;;;;4829282;29;20060;-68
2021/01/15 13:10:10;;;;;;;6.35;3.42;;;3.10;99.90;;;;;;4818224;29;20210;-68
2021/01/15 13:12:37;;;;;;;6.55;3.58;;;3.10;99.90;;;;;;4843190;29;20071;-68
2021/01/15 13:15:05;;;;;;;7.50;3.53;;;3.10;99.90;;;;;;4826536;29;20114;-67